x

Matinicus Rock, Me (mism1) Weather Station

7:00pm - Mon 23rd Oct 2017 All times are EDT. -4 hours from GMT.

  • Wind
    6mph, 6mph gusts
  • Air Temp 54°f
  • Sea Pressure 1024.4mb
  • Matinicus Rock, Me
  • Matinicus Rock, Me

More Historic Weather Station data

Upgrade to MSW Pro to gain access to the past 30 days of data for over 8000 Wavebouys and Weather Stations around the globe.

Join

Comparision Forecast

View Surf forecast
   
Mon 10/23 7:00pm 6 6 mph 1024.4mb 54f
6:00pm 7 7 mph 1024.4mb 54f
5:00pm 2 3 mph 1024.9mb 54f
4:00pm 5 5 mph 1025.2mb 54f
3:00pm 6 7 mph 1025.6mb 55f
2:00pm 6 7 mph 1026.1mb 54f
1:00pm 9 9 mph 1026.8mb 53f
12:00pm 10 11 mph 1027.6mb 53f
11:00am 16 17 mph 1028.4mb 52f
10:00am 11 15 mph 1028.6mb 51f
9:00am 11 13 mph 1028.6mb 52f
8:00am 11 13 mph 1028.3mb 52f
7:00am 11 13 mph 1028.2mb 53f
6:00am 13 13 mph 1028.1mb 53f
5:00am 10 11 mph 1028mb 53f
4:00am 6 6 mph 1028.3mb 54f
3:00am 2 2 mph 1028.9mb 54f
2:00am 8 8 mph 1029.1mb 53f
1:00am 7 8 mph 1029.6mb 54f
12:00am 11 11 mph 1029.6mb 53f
Sun 10/22 11:00pm 9 10 mph 1029.9mb 54f
10:00pm 16 17 mph 1030mb 54f
9:00pm 15 17 mph 1030mb 55f
8:00pm 17 18 mph 1029.9mb 55f
7:00pm 18 20 mph 1030.2mb 54f
6:00pm 20 22 mph 1030.2mb 54f
5:00pm 20 21 mph 1030.4mb 55f
4:00pm 20 21 mph 1030.2mb 55f
3:00pm 21 22 mph 1030.2mb 55f
2:00pm 20 21 mph 1030.1mb 55f
1:00pm 21 23 mph 1030.2mb 55f
12:00pm 21 23 mph 1030.6mb 54f
11:00am 23 25 mph 1030.5mb 54f
10:00am 25 26 mph 1030.3mb 54f
9:00am 23 25 mph 1029.7mb 55f
8:00am 23 24 mph 1029.3mb 54f
7:00am 21 22 mph 1028.4mb 54f
6:00am 15 16 mph 1028.2mb 54f
5:00am 13 14 mph 1027.6mb 54f
4:00am 10 11 mph 1027.2mb 55f
3:00am 9 10 mph 1026.7mb 55f
2:00am 5 6 mph 1026.3mb 55f
1:00am 8 8 mph 1026.1mb 56f
12:00am 10 11 mph 1026mb 56f
Sat 10/21 11:00pm 11 11 mph 1025.8mb 56f
10:00pm 10 10 mph 1025.8mb 56f
9:00pm 11 11 mph 1025.6mb 56f
8:00pm 13 14 mph 1025.3mb 56f
7:00pm 10 11 mph 1025.1mb 56f
6:00pm 11 13 mph 1024.6mb 56f
5:00pm 8 9 mph 1024.4mb 57f
4:00pm 8 8 mph 1024.3mb 59f
3:00pm 9 10 mph 1024.2mb 58f
2:00pm 9 9 mph 1023.9mb 59f
1:00pm 7 7 mph 1023.9mb 59f
12:00pm 7 8 mph 1024.2mb 60f
11:00am  -  2 mph 1024.2mb 57f
10:00am 2 2 mph 1024.2mb 56f
9:00am 5 6 mph 1024mb 55f
8:00am 13 14 mph 1023.3mb 55f
7:00am 9 10 mph 1022.4mb 55f
6:00am 9 9 mph 1021.9mb 55f
5:00am 6 7 mph 1021.5mb 54f
4:00am 10 11 mph 1020.8mb 55f
3:00am 13 13 mph 1020.2mb 55f
2:00am 13 14 mph 1020.1mb 56f
1:00am 13 15 mph 1019.6mb 56f
12:00am 10 11 mph 1019.2mb 56f
Fri 10/20 11:00pm 11 13 mph 1018.3mb 56f
10:00pm 17 18 mph 1017.4mb 58f
9:00pm 22 23 mph 1016.3mb 58f
8:00pm 17 18 mph 1015.4mb 59f
7:00pm 15 16 mph 1015mb 59f
6:00pm 23 24 mph 1013.8mb 61f
5:00pm 20 22 mph 1012.8mb 57f
4:00pm 23 24 mph 1012.6mb 58f
3:00pm 13 16 mph 1012.5mb 60f
2:00pm 18 20 mph 1012.3mb 59f
1:00pm 20 21 mph 1013.1mb 60f
12:00pm 16 17 mph 1013.9mb 58f
10:00am 18 20 mph 1014.6mb 57f
9:00am 15 17 mph 1014.1mb 56f
8:00am 21 22 mph 1014.1mb 57f
7:00am 15 16 mph 1013.2mb 55f
6:00am 15 16 mph 1012.5mb 55f
5:00am 18 20 mph 1011.9mb 56f
4:00am 22 24 mph 1011.6mb 56f
3:00am 23 25 mph 1011.6mb 57f
2:00am 23 24 mph 1011.7mb 57f